sensor_id;sensor_type;location;lat;lon;timestamp;pressure;altitude;pressure_sealevel;temperature
29423;BMP180;16399;51.686;8.684;2023-10-09T00:01:07;100276.00;;;13.00
29423;BMP180;16399;51.686;8.684;2023-10-09T00:04:15;100276.00;;;13.00
29423;BMP180;16399;51.686;8.684;2023-10-09T00:07:21;100263.00;;;13.00
29423;BMP180;16399;51.686;8.684;2023-10-09T00:10:24;100266.00;;;12.90
29423;BMP180;16399;51.686;8.684;2023-10-09T00:13:28;100254.00;;;12.90
29423;BMP180;16399;51.686;8.684;2023-10-09T00:16:33;100259.00;;;12.90
29423;BMP180;16399;51.686;8.684;2023-10-09T00:19:40;100268.00;;;12.80
29423;BMP180;16399;51.686;8.684;2023-10-09T00:22:44;100261.00;;;12.80
29423;BMP180;16399;51.686;8.684;2023-10-09T00:25:50;100266.00;;;12.80
29423;BMP180;16399;51.686;8.684;2023-10-09T00:29:13;100249.00;;;12.70
29423;BMP180;16399;51.686;8.684;2023-10-09T00:32:25;100243.00;;;12.70
29423;BMP180;16399;51.686;8.684;2023-10-09T00:35:28;100233.00;;;12.70
29423;BMP180;16399;51.686;8.684;2023-10-09T00:38:47;100221.00;;;12.70
29423;BMP180;16399;51.686;8.684;2023-10-09T00:41:53;100226.00;;;12.70
29423;BMP180;16399;51.686;8.684;2023-10-09T00:44:56;100230.00;;;12.80
29423;BMP180;16399;51.686;8.684;2023-10-09T00:48:00;100205.00;;;13.00
29423;BMP180;16399;51.686;8.684;2023-10-09T00:51:04;100204.00;;;13.20
29423;BMP180;16399;51.686;8.684;2023-10-09T00:54:08;100200.00;;;13.40
29423;BMP180;16399;51.686;8.684;2023-10-09T00:57:18;100207.00;;;13.60
29423;BMP180;16399;51.686;8.684;2023-10-09T01:00:22;100219.00;;;13.80
29423;BMP180;16399;51.686;8.684;2023-10-09T01:03:34;100208.00;;;14.00
29423;BMP180;16399;51.686;8.684;2023-10-09T01:06:38;100181.00;;;14.10
29423;BMP180;16399;51.686;8.684;2023-10-09T01:09:42;100187.00;;;14.30
29423;BMP180;16399;51.686;8.684;2023-10-09T01:12:46;100180.00;;;14.40
29423;BMP180;16399;51.686;8.684;2023-10-09T01:15:49;100183.00;;;14.50
29423;BMP180;16399;51.686;8.684;2023-10-09T01:18:55;100175.00;;;14.60
29423;BMP180;16399;51.686;8.684;2023-10-09T01:21:58;100169.00;;;14.60
29423;BMP180;16399;51.686;8.684;2023-10-09T01:25:02;100161.00;;;14.70
29423;BMP180;16399;51.686;8.684;2023-10-09T01:28:06;100162.00;;;14.70
29423;BMP180;16399;51.686;8.684;2023-10-09T01:31:08;100171.00;;;14.80
29423;BMP180;16399;51.686;8.684;2023-10-09T01:34:11;100163.00;;;14.80
29423;BMP180;16399;51.686;8.684;2023-10-09T01:37:19;100147.00;;;14.90
29423;BMP180;16399;51.686;8.684;2023-10-09T01:40:23;100147.00;;;14.90
29423;BMP180;16399;51.686;8.684;2023-10-09T01:43:32;100152.00;;;14.90
29423;BMP180;16399;51.686;8.684;2023-10-09T01:46:35;100158.00;;;15.00
29423;BMP180;16399;51.686;8.684;2023-10-09T01:49:38;100168.00;;;15.00
29423;BMP180;16399;51.686;8.684;2023-10-09T01:52:42;100172.00;;;15.10
29423;BMP180;16399;51.686;8.684;2023-10-09T01:55:44;100178.00;;;15.10
29423;BMP180;16399;51.686;8.684;2023-10-09T01:58:47;100163.00;;;15.20
29423;BMP180;16399;51.686;8.684;2023-10-09T02:01:51;100173.00;;;15.20
29423;BMP180;16399;51.686;8.684;2023-10-09T02:04:57;100157.00;;;15.30
29423;BMP180;16399;51.686;8.684;2023-10-09T02:08:01;100181.00;;;15.30
29423;BMP180;16399;51.686;8.684;2023-10-09T02:11:05;100169.00;;;15.40
29423;BMP180;16399;51.686;8.684;2023-10-09T02:14:08;100166.00;;;15.40
29423;BMP180;16399;51.686;8.684;2023-10-09T02:17:18;100161.00;;;15.50
29423;BMP180;16399;51.686;8.684;2023-10-09T02:20:21;100152.00;;;15.50
29423;BMP180;16399;51.686;8.684;2023-10-09T02:23:28;100150.00;;;15.60
29423;BMP180;16399;51.686;8.684;2023-10-09T02:26:47;100138.00;;;15.60
29423;BMP180;16399;51.686;8.684;2023-10-09T02:29:54;100144.00;;;15.70
29423;BMP180;16399;51.686;8.684;2023-10-09T02:32:58;100150.00;;;15.70
29423;BMP180;16399;51.686;8.684;2023-10-09T02:36:10;100160.00;;;15.80
29423;BMP180;16399;51.686;8.684;2023-10-09T02:39:14;100149.00;;;15.80
29423;BMP180;16399;51.686;8.684;2023-10-09T02:42:25;100148.00;;;15.90
29423;BMP180;16399;51.686;8.684;2023-10-09T02:45:29;100146.00;;;15.90
29423;BMP180;16399;51.686;8.684;2023-10-09T02:48:33;100142.00;;;16.00
29423;BMP180;16399;51.686;8.684;2023-10-09T02:51:37;100140.00;;;16.00
29423;BMP180;16399;51.686;8.684;2023-10-09T02:54:45;100134.00;;;16.00
29423;BMP180;16399;51.686;8.684;2023-10-09T02:57:48;100136.00;;;16.00
29423;BMP180;16399;51.686;8.684;2023-10-09T03:00:52;100123.00;;;16.00
29423;BMP180;16399;51.686;8.684;2023-10-09T03:03:55;100128.00;;;16.00
29423;BMP180;16399;51.686;8.684;2023-10-09T03:07:02;100128.00;;;16.00
29423;BMP180;16399;51.686;8.684;2023-10-09T03:10:06;100132.00;;;16.00
29423;BMP180;16399;51.686;8.684;2023-10-09T03:13:10;100125.00;;;16.10
29423;BMP180;16399;51.686;8.684;2023-10-09T03:16:13;100137.00;;;16.10
29423;BMP180;16399;51.686;8.684;2023-10-09T03:19:19;100131.00;;;16.10
29423;BMP180;16399;51.686;8.684;2023-10-09T03:22:22;100121.00;;;16.10
29423;BMP180;16399;51.686;8.684;2023-10-09T03:25:24;100115.00;;;16.10
29423;BMP180;16399;51.686;8.684;2023-10-09T03:28:28;100116.00;;;16.20
29423;BMP180;16399;51.686;8.684;2023-10-09T03:31:30;100115.00;;;16.20
29423;BMP180;16399;51.686;8.684;2023-10-09T03:34:34;100104.00;;;16.20
29423;BMP180;16399;51.686;8.684;2023-10-09T03:37:36;100094.00;;;16.20
29423;BMP180;16399;51.686;8.684;2023-10-09T03:40:43;100098.00;;;16.20
29423;BMP180;16399;51.686;8.684;2023-10-09T03:43:46;100081.00;;;16.20
29423;BMP180;16399;51.686;8.684;2023-10-09T03:46:49;100082.00;;;16.20
29423;BMP180;16399;51.686;8.684;2023-10-09T03:49:52;100083.00;;;16.20
29423;BMP180;16399;51.686;8.684;2023-10-09T03:52:55;100082.00;;;16.20
29423;BMP180;16399;51.686;8.684;2023-10-09T03:55:57;100089.00;;;16.20
29423;BMP180;16399;51.686;8.684;2023-10-09T03:59:00;100085.00;;;16.20
29423;BMP180;16399;51.686;8.684;2023-10-09T04:02:06;100076.00;;;16.20
29423;BMP180;16399;51.686;8.684;2023-10-09T04:05:08;100062.00;;;16.20
29423;BMP180;16399;51.686;8.684;2023-10-09T04:08:11;100060.00;;;16.20
29423;BMP180;16399;51.686;8.684;2023-10-09T04:11:25;100075.00;;;16.20
29423;BMP180;16399;51.686;8.684;2023-10-09T04:14:28;100069.00;;;16.20
29423;BMP180;16399;51.686;8.684;2023-10-09T04:17:34;100068.00;;;16.20
29423;BMP180;16399;51.686;8.684;2023-10-09T04:20:38;100059.00;;;16.20
29423;BMP180;16399;51.686;8.684;2023-10-09T04:23:51;100052.00;;;16.20
29423;BMP180;16399;51.686;8.684;2023-10-09T04:27:13;100051.00;;;16.20
29423;BMP180;16399;51.686;8.684;2023-10-09T04:30:17;100044.00;;;16.20
29423;BMP180;16399;51.686;8.684;2023-10-09T04:33:20;100048.00;;;16.20
29423;BMP180;16399;51.686;8.684;2023-10-09T04:36:36;100045.00;;;16.10
29423;BMP180;16399;51.686;8.684;2023-10-09T04:39:40;100039.00;;;16.10
29423;BMP180;16399;51.686;8.684;2023-10-09T04:42:50;100039.00;;;16.10
29423;BMP180;16399;51.686;8.684;2023-10-09T04:46:03;100042.00;;;16.10
29423;BMP180;16399;51.686;8.684;2023-10-09T04:49:10;100032.00;;;16.10
29423;BMP180;16399;51.686;8.684;2023-10-09T04:52:28;100048.00;;;16.10
29423;BMP180;16399;51.686;8.684;2023-10-09T04:55:32;100047.00;;;16.10
29423;BMP180;16399;51.686;8.684;2023-10-09T04:58:36;100042.00;;;16.20
29423;BMP180;16399;51.686;8.684;2023-10-09T05:01:40;100048.00;;;16.20
29423;BMP180;16399;51.686;8.684;2023-10-09T05:04:45;100045.00;;;16.20
29423;BMP180;16399;51.686;8.684;2023-10-09T05:07:49;100029.00;;;16.20
29423;BMP180;16399;51.686;8.684;2023-10-09T05:11:01;100041.00;;;16.20
29423;BMP180;16399;51.686;8.684;2023-10-09T05:14:05;100044.00;;;16.20
29423;BMP180;16399;51.686;8.684;2023-10-09T05:17:13;100028.00;;;16.20
29423;BMP180;16399;51.686;8.684;2023-10-09T05:20:18;100036.00;;;16.20
29423;BMP180;16399;51.686;8.684;2023-10-09T05:23:28;100042.00;;;16.30
29423;BMP180;16399;51.686;8.684;2023-10-09T05:26:32;100046.00;;;16.30
29423;BMP180;16399;51.686;8.684;2023-10-09T05:29:51;100059.00;;;16.30
29423;BMP180;16399;51.686;8.684;2023-10-09T05:32:56;100066.00;;;16.30
29423;BMP180;16399;51.686;8.684;2023-10-09T05:36:06;100073.00;;;16.30
29423;BMP180;16399;51.686;8.684;2023-10-09T05:39:10;100080.00;;;16.30
29423;BMP180;16399;51.686;8.684;2023-10-09T05:42:27;100084.00;;;16.30
29423;BMP180;16399;51.686;8.684;2023-10-09T05:45:40;100093.00;;;16.40
29423;BMP180;16399;51.686;8.684;2023-10-09T05:48:47;100095.00;;;16.40
29423;BMP180;16399;51.686;8.684;2023-10-09T05:51:53;100095.00;;;16.40
29423;BMP180;16399;51.686;8.684;2023-10-09T05:54:58;100090.00;;;16.40
29423;BMP180;16399;51.686;8.684;2023-10-09T05:58:18;100089.00;;;16.40
29423;BMP180;16399;51.686;8.684;2023-10-09T06:01:28;100103.00;;;16.30
29423;BMP180;16399;51.686;8.684;2023-10-09T06:04:43;100111.00;;;16.30
29423;BMP180;16399;51.686;8.684;2023-10-09T06:07:53;100127.00;;;16.30
29423;BMP180;16399;51.686;8.684;2023-10-09T06:11:10;100131.00;;;16.30
29423;BMP180;16399;51.686;8.684;2023-10-09T06:14:31;100133.00;;;16.20
29423;BMP180;16399;51.686;8.684;2023-10-09T06:17:37;100120.00;;;16.20
29423;BMP180;16399;51.686;8.684;2023-10-09T06:20:41;100136.00;;;16.20
29423;BMP180;16399;51.686;8.684;2023-10-09T06:23:45;100140.00;;;16.20
29423;BMP180;16399;51.686;8.684;2023-10-09T06:27:05;100135.00;;;16.20
29423;BMP180;16399;51.686;8.684;2023-10-09T06:30:10;100141.00;;;16.20
29423;BMP180;16399;51.686;8.684;2023-10-09T06:33:16;100137.00;;;16.20
29423;BMP180;16399;51.686;8.684;2023-10-09T06:36:23;100140.00;;;16.20
29423;BMP180;16399;51.686;8.684;2023-10-09T06:39:27;100158.00;;;16.20
29423;BMP180;16399;51.686;8.684;2023-10-09T06:42:47;100154.00;;;16.20
29423;BMP180;16399;51.686;8.684;2023-10-09T06:45:55;100155.00;;;16.20
29423;BMP180;16399;51.686;8.684;2023-10-09T06:49:02;100159.00;;;16.20
29423;BMP180;16399;51.686;8.684;2023-10-09T06:52:06;100151.00;;;16.30
29423;BMP180;16399;51.686;8.684;2023-10-09T06:55:13;100147.00;;;16.30
29423;BMP180;16399;51.686;8.684;2023-10-09T06:58:21;100151.00;;;16.30
29423;BMP180;16399;51.686;8.684;2023-10-09T07:01:30;100166.00;;;16.30
29423;BMP180;16399;51.686;8.684;2023-10-09T07:04:43;100166.00;;;16.30
29423;BMP180;16399;51.686;8.684;2023-10-09T07:07:48;100169.00;;;16.30
29423;BMP180;16399;51.686;8.684;2023-10-09T07:10:55;100178.00;;;16.40
29423;BMP180;16399;51.686;8.684;2023-10-09T07:13:59;100175.00;;;16.40
29423;BMP180;16399;51.686;8.684;2023-10-09T07:17:11;100173.00;;;16.40
29423;BMP180;16399;51.686;8.684;2023-10-09T07:20:28;100164.00;;;16.50
29423;BMP180;16399;51.686;8.684;2023-10-09T07:23:40;100164.00;;;16.50
29423;BMP180;16399;51.686;8.684;2023-10-09T07:26:44;100178.00;;;16.50
29423;BMP180;16399;51.686;8.684;2023-10-09T07:29:49;100177.00;;;16.50
29423;BMP180;16399;51.686;8.684;2023-10-09T07:32:53;100175.00;;;16.60
29423;BMP180;16399;51.686;8.684;2023-10-09T07:35:55;100171.00;;;16.60
29423;BMP180;16399;51.686;8.684;2023-10-09T07:39:02;100162.00;;;16.60
29423;BMP180;16399;51.686;8.684;2023-10-09T07:42:06;100158.00;;;16.60
29423;BMP180;16399;51.686;8.684;2023-10-09T07:45:19;100160.00;;;16.70
29423;BMP180;16399;51.686;8.684;2023-10-09T07:48:24;100149.00;;;16.70
29423;BMP180;16399;51.686;8.684;2023-10-09T07:51:30;100155.00;;;16.80
29423;BMP180;16399;51.686;8.684;2023-10-09T07:54:33;100164.00;;;16.80
29423;BMP180;16399;51.686;8.684;2023-10-09T07:57:37;100156.00;;;16.80
29423;BMP180;16399;51.686;8.684;2023-10-09T08:00:43;100168.00;;;16.90
29423;BMP180;16399;51.686;8.684;2023-10-09T08:03:53;100185.00;;;16.90
29423;BMP180;16399;51.686;8.684;2023-10-09T08:07:09;100204.00;;;16.90
29423;BMP180;16399;51.686;8.684;2023-10-09T08:10:13;100180.00;;;16.90
29423;BMP180;16399;51.686;8.684;2023-10-09T08:13:23;100173.00;;;17.00
29423;BMP180;16399;51.686;8.684;2023-10-09T08:16:43;100153.00;;;17.00
29423;BMP180;16399;51.686;8.684;2023-10-09T08:19:48;100135.00;;;17.10
29423;BMP180;16399;51.686;8.684;2023-10-09T08:22:56;100143.00;;;17.10
29423;BMP180;16399;51.686;8.684;2023-10-09T08:26:00;100153.00;;;17.10
29423;BMP180;16399;51.686;8.684;2023-10-09T08:29:04;100160.00;;;17.20
29423;BMP180;16399;51.686;8.684;2023-10-09T08:32:14;100160.00;;;17.20
29423;BMP180;16399;51.686;8.684;2023-10-09T08:35:24;100152.00;;;17.20
29423;BMP180;16399;51.686;8.684;2023-10-09T08:38:34;100165.00;;;17.20
29423;BMP180;16399;51.686;8.684;2023-10-09T08:41:37;100159.00;;;17.20
29423;BMP180;16399;51.686;8.684;2023-10-09T08:44:41;100163.00;;;17.20
29423;BMP180;16399;51.686;8.684;2023-10-09T08:47:45;100167.00;;;17.20
29423;BMP180;16399;51.686;8.684;2023-10-09T08:50:49;100162.00;;;17.20
29423;BMP180;16399;51.686;8.684;2023-10-09T08:53:52;100169.00;;;17.20
29423;BMP180;16399;51.686;8.684;2023-10-09T08:56:56;100157.00;;;17.30
29423;BMP180;16399;51.686;8.684;2023-10-09T08:59:59;100166.00;;;17.30
29423;BMP180;16399;51.686;8.684;2023-10-09T09:03:02;100168.00;;;17.30
29423;BMP180;16399;51.686;8.684;2023-10-09T09:06:06;100172.00;;;17.30
29423;BMP180;16399;51.686;8.684;2023-10-09T09:09:11;100178.00;;;17.40
29423;BMP180;16399;51.686;8.684;2023-10-09T09:12:17;100175.00;;;17.40
29423;BMP180;16399;51.686;8.684;2023-10-09T09:15:20;100183.00;;;17.30
29423;BMP180;16399;51.686;8.684;2023-10-09T09:18:23;100193.00;;;17.30
29423;BMP180;16399;51.686;8.684;2023-10-09T09:21:27;100181.00;;;17.30
29423;BMP180;16399;51.686;8.684;2023-10-09T09:24:30;100186.00;;;17.30
29423;BMP180;16399;51.686;8.684;2023-10-09T09:27:47;100180.00;;;17.30
29423;BMP180;16399;51.686;8.684;2023-10-09T09:31:07;100181.00;;;17.20
29423;BMP180;16399;51.686;8.684;2023-10-09T09:34:16;100170.00;;;17.20
29423;BMP180;16399;51.686;8.684;2023-10-09T09:37:20;100156.00;;;17.20
29423;BMP180;16399;51.686;8.684;2023-10-09T09:40:23;100136.00;;;17.10
29423;BMP180;16399;51.686;8.684;2023-10-09T09:43:27;100131.00;;;17.10
29423;BMP180;16399;51.686;8.684;2023-10-09T09:46:33;100132.00;;;17.20
29423;BMP180;16399;51.686;8.684;2023-10-09T09:49:37;100123.00;;;17.30
29423;BMP180;16399;51.686;8.684;2023-10-09T09:52:40;100101.00;;;17.40
29423;BMP180;16399;51.686;8.684;2023-10-09T09:55:46;100092.00;;;17.50
29423;BMP180;16399;51.686;8.684;2023-10-09T09:58:51;100099.00;;;17.60
29423;BMP180;16399;51.686;8.684;2023-10-09T10:01:59;100097.00;;;17.70
29423;BMP180;16399;51.686;8.684;2023-10-09T10:05:10;100087.00;;;17.80
29423;BMP180;16399;51.686;8.684;2023-10-09T10:08:18;100097.00;;;17.80
29423;BMP180;16399;51.686;8.684;2023-10-09T10:11:43;100096.00;;;17.90
29423;BMP180;16399;51.686;8.684;2023-10-09T10:14:56;100088.00;;;18.00
29423;BMP180;16399;51.686;8.684;2023-10-09T10:21:10;100091.00;;;18.00
29423;BMP180;16399;51.686;8.684;2023-10-09T10:27:33;100069.00;;;18.10
29423;BMP180;16399;51.686;8.684;2023-10-09T10:30:41;100089.00;;;18.20
29423;BMP180;16399;51.686;8.684;2023-10-09T10:36:59;100079.00;;;18.20
29423;BMP180;16399;51.686;8.684;2023-10-09T10:40:02;100069.00;;;18.30
29423;BMP180;16399;51.686;8.684;2023-10-09T10:43:06;100079.00;;;18.40
29423;BMP180;16399;51.686;8.684;2023-10-09T10:46:14;100078.00;;;18.50
29423;BMP180;16399;51.686;8.684;2023-10-09T10:49:19;100089.00;;;18.60
29423;BMP180;16399;51.686;8.684;2023-10-09T10:52:25;100083.00;;;18.60
29423;BMP180;16399;51.686;8.684;2023-10-09T10:55:58;100089.00;;;18.70
29423;BMP180;16399;51.686;8.684;2023-10-09T10:59:02;100096.00;;;18.70
29423;BMP180;16399;51.686;8.684;2023-10-09T11:02:12;100089.00;;;18.70
29423;BMP180;16399;51.686;8.684;2023-10-09T11:05:16;100091.00;;;18.70
29423;BMP180;16399;51.686;8.684;2023-10-09T11:08:27;100090.00;;;18.80
29423;BMP180;16399;51.686;8.684;2023-10-09T11:11:31;100097.00;;;18.80
29423;BMP180;16399;51.686;8.684;2023-10-09T11:14:35;100092.00;;;18.80
29423;BMP180;16399;51.686;8.684;2023-10-09T11:17:39;100103.00;;;18.90
29423;BMP180;16399;51.686;8.684;2023-10-09T11:20:43;100113.00;;;18.90
29423;BMP180;16399;51.686;8.684;2023-10-09T11:24:05;100109.00;;;18.90
29423;BMP180;16399;51.686;8.684;2023-10-09T11:27:27;100119.00;;;18.80
29423;BMP180;16399;51.686;8.684;2023-10-09T11:30:32;100131.00;;;18.80
29423;BMP180;16399;51.686;8.684;2023-10-09T11:33:52;100144.00;;;18.80
29423;BMP180;16399;51.686;8.684;2023-10-09T11:36:56;100157.00;;;18.80
29423;BMP180;16399;51.686;8.684;2023-10-09T11:40:00;100150.00;;;18.70
29423;BMP180;16399;51.686;8.684;2023-10-09T11:43:03;100154.00;;;18.60
29423;BMP180;16399;51.686;8.684;2023-10-09T11:46:10;100153.00;;;18.60
29423;BMP180;16399;51.686;8.684;2023-10-09T11:49:13;100149.00;;;18.50
29423;BMP180;16399;51.686;8.684;2023-10-09T11:52:23;100149.00;;;18.50
29423;BMP180;16399;51.686;8.684;2023-10-09T11:55:37;100151.00;;;18.50
29423;BMP180;16399;51.686;8.684;2023-10-09T11:58:39;100154.00;;;18.60
29423;BMP180;16399;51.686;8.684;2023-10-09T12:01:45;100153.00;;;18.60
29423;BMP180;16399;51.686;8.684;2023-10-09T12:04:49;100158.00;;;18.50
29423;BMP180;16399;51.686;8.684;2023-10-09T12:07:51;100154.00;;;18.50
29423;BMP180;16399;51.686;8.684;2023-10-09T12:10:58;100153.00;;;18.50
29423;BMP180;16399;51.686;8.684;2023-10-09T12:14:07;100146.00;;;18.40
29423;BMP180;16399;51.686;8.684;2023-10-09T12:17:07;100138.00;;;18.40
29423;BMP180;16399;51.686;8.684;2023-10-09T12:20:10;100144.00;;;18.40
29423;BMP180;16399;51.686;8.684;2023-10-09T12:23:14;100147.00;;;18.50
29423;BMP180;16399;51.686;8.684;2023-10-09T12:26:16;100142.00;;;18.50
29423;BMP180;16399;51.686;8.684;2023-10-09T12:29:18;100150.00;;;18.50
29423;BMP180;16399;51.686;8.684;2023-10-09T12:32:21;100152.00;;;18.50
29423;BMP180;16399;51.686;8.684;2023-10-09T12:35:25;100133.00;;;18.40
29423;BMP180;16399;51.686;8.684;2023-10-09T12:38:28;100137.00;;;18.40
29423;BMP180;16399;51.686;8.684;2023-10-09T12:41:32;100132.00;;;18.40
29423;BMP180;16399;51.686;8.684;2023-10-09T12:44:36;100125.00;;;18.40
29423;BMP180;16399;51.686;8.684;2023-10-09T12:47:40;100121.00;;;18.40
29423;BMP180;16399;51.686;8.684;2023-10-09T12:50:43;100121.00;;;18.40
29423;BMP180;16399;51.686;8.684;2023-10-09T12:53:48;100119.00;;;18.30
29423;BMP180;16399;51.686;8.684;2023-10-09T12:56:52;100128.00;;;18.40
29423;BMP180;16399;51.686;8.684;2023-10-09T12:59:55;100129.00;;;18.40
29423;BMP180;16399;51.686;8.684;2023-10-09T13:02:57;100132.00;;;18.30
29423;BMP180;16399;51.686;8.684;2023-10-09T13:06:01;100133.00;;;18.30
29423;BMP180;16399;51.686;8.684;2023-10-09T13:09:05;100141.00;;;18.30
29423;BMP180;16399;51.686;8.684;2023-10-09T13:12:08;100131.00;;;18.20
29423;BMP180;16399;51.686;8.684;2023-10-09T13:15:11;100137.00;;;18.10
29423;BMP180;16399;51.686;8.684;2023-10-09T13:18:15;100133.00;;;18.10
29423;BMP180;16399;51.686;8.684;2023-10-09T13:21:18;100120.00;;;18.10
29423;BMP180;16399;51.686;8.684;2023-10-09T13:24:21;100117.00;;;18.10
29423;BMP180;16399;51.686;8.684;2023-10-09T13:27:25;100134.00;;;18.00
29423;BMP180;16399;51.686;8.684;2023-10-09T13:30:29;100122.00;;;18.00
29423;BMP180;16399;51.686;8.684;2023-10-09T13:33:33;100119.00;;;18.00
29423;BMP180;16399;51.686;8.684;2023-10-09T13:36:37;100123.00;;;17.90
29423;BMP180;16399;51.686;8.684;2023-10-09T13:39:40;100118.00;;;17.90
29423;BMP180;16399;51.686;8.684;2023-10-09T13:42:44;100127.00;;;17.90
29423;BMP180;16399;51.686;8.684;2023-10-09T13:45:46;100114.00;;;17.90
29423;BMP180;16399;51.686;8.684;2023-10-09T13:48:51;100116.00;;;17.90
29423;BMP180;16399;51.686;8.684;2023-10-09T13:51:54;100119.00;;;17.90
29423;BMP180;16399;51.686;8.684;2023-10-09T13:54:57;100109.00;;;18.00
29423;BMP180;16399;51.686;8.684;2023-10-09T13:58:01;100135.00;;;18.00
29423;BMP180;16399;51.686;8.684;2023-10-09T14:01:05;100120.00;;;18.00
29423;BMP180;16399;51.686;8.684;2023-10-09T14:04:09;100120.00;;;18.00
29423;BMP180;16399;51.686;8.684;2023-10-09T14:07:13;100132.00;;;17.90
29423;BMP180;16399;51.686;8.684;2023-10-09T14:10:17;100126.00;;;17.90
29423;BMP180;16399;51.686;8.684;2023-10-09T14:13:19;100126.00;;;17.90
29423;BMP180;16399;51.686;8.684;2023-10-09T14:16:23;100125.00;;;17.90
29423;BMP180;16399;51.686;8.684;2023-10-09T14:19:27;100127.00;;;17.90
29423;BMP180;16399;51.686;8.684;2023-10-09T14:22:31;100122.00;;;17.90
29423;BMP180;16399;51.686;8.684;2023-10-09T14:25:34;100121.00;;;17.90
29423;BMP180;16399;51.686;8.684;2023-10-09T14:28:42;100126.00;;;17.90
29423;BMP180;16399;51.686;8.684;2023-10-09T14:31:47;100132.00;;;17.90
29423;BMP180;16399;51.686;8.684;2023-10-09T14:34:51;100133.00;;;17.90
29423;BMP180;16399;51.686;8.684;2023-10-09T14:37:55;100130.00;;;17.90
29423;BMP180;16399;51.686;8.684;2023-10-09T14:40:57;100133.00;;;17.90
29423;BMP180;16399;51.686;8.684;2023-10-09T14:44:01;100135.00;;;17.90
29423;BMP180;16399;51.686;8.684;2023-10-09T14:47:04;100135.00;;;17.90
29423;BMP180;16399;51.686;8.684;2023-10-09T14:50:09;100140.00;;;17.90
29423;BMP180;16399;51.686;8.684;2023-10-09T14:53:13;100137.00;;;17.90
29423;BMP180;16399;51.686;8.684;2023-10-09T14:56:16;100138.00;;;17.80
29423;BMP180;16399;51.686;8.684;2023-10-09T14:59:20;100134.00;;;17.80
29423;BMP180;16399;51.686;8.684;2023-10-09T15:02:24;100141.00;;;17.80
29423;BMP180;16399;51.686;8.684;2023-10-09T15:05:26;100134.00;;;17.80
29423;BMP180;16399;51.686;8.684;2023-10-09T15:08:30;100128.00;;;17.80
29423;BMP180;16399;51.686;8.684;2023-10-09T15:11:35;100127.00;;;17.80
29423;BMP180;16399;51.686;8.684;2023-10-09T15:14:41;100134.00;;;17.80
29423;BMP180;16399;51.686;8.684;2023-10-09T15:17:44;100135.00;;;17.80
29423;BMP180;16399;51.686;8.684;2023-10-09T15:20:48;100128.00;;;17.80
29423;BMP180;16399;51.686;8.684;2023-10-09T15:23:59;100137.00;;;17.80
29423;BMP180;16399;51.686;8.684;2023-10-09T15:27:02;100146.00;;;17.80
29423;BMP180;16399;51.686;8.684;2023-10-09T15:30:06;100146.00;;;17.80
29423;BMP180;16399;51.686;8.684;2023-10-09T15:33:17;100142.00;;;17.80
29423;BMP180;16399;51.686;8.684;2023-10-09T15:36:19;100147.00;;;17.80
29423;BMP180;16399;51.686;8.684;2023-10-09T15:39:23;100152.00;;;17.80
29423;BMP180;16399;51.686;8.684;2023-10-09T15:42:26;100148.00;;;17.80
29423;BMP180;16399;51.686;8.684;2023-10-09T15:45:29;100144.00;;;17.80
29423;BMP180;16399;51.686;8.684;2023-10-09T15:48:32;100141.00;;;17.80
29423;BMP180;16399;51.686;8.684;2023-10-09T15:51:36;100145.00;;;17.80
29423;BMP180;16399;51.686;8.684;2023-10-09T15:54:38;100147.00;;;17.90
29423;BMP180;16399;51.686;8.684;2023-10-09T15:57:42;100151.00;;;17.80
29423;BMP180;16399;51.686;8.684;2023-10-09T16:00:45;100152.00;;;17.80
29423;BMP180;16399;51.686;8.684;2023-10-09T16:03:48;100157.00;;;17.80
29423;BMP180;16399;51.686;8.684;2023-10-09T16:06:51;100164.00;;;17.80
29423;BMP180;16399;51.686;8.684;2023-10-09T16:09:54;100162.00;;;17.80
29423;BMP180;16399;51.686;8.684;2023-10-09T16:12:56;100167.00;;;17.80
29423;BMP180;16399;51.686;8.684;2023-10-09T16:16:02;100169.00;;;17.80
29423;BMP180;16399;51.686;8.684;2023-10-09T16:19:06;100172.00;;;17.80
29423;BMP180;16399;51.686;8.684;2023-10-09T16:22:08;100164.00;;;17.80
29423;BMP180;16399;51.686;8.684;2023-10-09T16:25:12;100172.00;;;17.80
29423;BMP180;16399;51.686;8.684;2023-10-09T16:28:14;100162.00;;;17.80
29423;BMP180;16399;51.686;8.684;2023-10-09T16:31:17;100177.00;;;17.80
29423;BMP180;16399;51.686;8.684;2023-10-09T16:34:20;100176.00;;;17.80
29423;BMP180;16399;51.686;8.684;2023-10-09T16:37:22;100177.00;;;17.80
29423;BMP180;16399;51.686;8.684;2023-10-09T16:40:25;100182.00;;;17.80
29423;BMP180;16399;51.686;8.684;2023-10-09T16:43:28;100176.00;;;17.80
29423;BMP180;16399;51.686;8.684;2023-10-09T16:46:31;100178.00;;;17.80
29423;BMP180;16399;51.686;8.684;2023-10-09T16:49:33;100174.00;;;17.80
29423;BMP180;16399;51.686;8.684;2023-10-09T16:52:36;100174.00;;;17.70
29423;BMP180;16399;51.686;8.684;2023-10-09T16:55:42;100180.00;;;17.70
29423;BMP180;16399;51.686;8.684;2023-10-09T16:58:45;100179.00;;;17.70
29423;BMP180;16399;51.686;8.684;2023-10-09T17:01:47;100185.00;;;17.70
29423;BMP180;16399;51.686;8.684;2023-10-09T17:04:50;100193.00;;;17.70
29423;BMP180;16399;51.686;8.684;2023-10-09T17:07:54;100201.00;;;17.70
29423;BMP180;16399;51.686;8.684;2023-10-09T17:10:57;100203.00;;;17.60
29423;BMP180;16399;51.686;8.684;2023-10-09T17:13:59;100206.00;;;17.70
29423;BMP180;16399;51.686;8.684;2023-10-09T17:17:01;100201.00;;;17.60
29423;BMP180;16399;51.686;8.684;2023-10-09T17:20:06;100208.00;;;17.60
29423;BMP180;16399;51.686;8.684;2023-10-09T17:23:10;100206.00;;;17.60
29423;BMP180;16399;51.686;8.684;2023-10-09T17:26:13;100199.00;;;17.60
29423;BMP180;16399;51.686;8.684;2023-10-09T17:29:17;100201.00;;;17.60
29423;BMP180;16399;51.686;8.684;2023-10-09T17:32:19;100206.00;;;17.60
29423;BMP180;16399;51.686;8.684;2023-10-09T17:35:21;100219.00;;;17.60
29423;BMP180;16399;51.686;8.684;2023-10-09T17:38:24;100214.00;;;17.60
29423;BMP180;16399;51.686;8.684;2023-10-09T17:41:26;100223.00;;;17.60
29423;BMP180;16399;51.686;8.684;2023-10-09T17:44:30;100226.00;;;17.60